createdAt,value
2019-05-01T00:02:03.264Z,27.93
2019-05-01T00:04:34.343Z,29.25
2019-05-01T00:07:05.355Z,27.32
2019-05-01T00:09:35.178Z,27.90
2019-05-01T00:12:04.518Z,29.00
2019-05-01T00:14:35.675Z,28.35
2019-05-01T00:17:05.081Z,27.87
2019-05-01T00:19:34.478Z,29.67
2019-05-01T00:22:03.817Z,27.45
2019-05-01T00:24:33.442Z,28.77
2019-05-01T00:27:02.876Z,28.95
2019-05-01T00:29:32.308Z,28.95
2019-05-01T00:32:01.641Z,30.32
2019-05-01T00:34:30.969Z,29.45
2019-05-01T00:37:00.300Z,29.50
2019-05-01T00:39:29.677Z,31.05
2019-05-01T00:41:59.000Z,30.90
2019-05-01T00:44:28.359Z,30.88
2019-05-01T00:46:58.075Z,30.00
2019-05-01T00:49:27.403Z,30.65
2019-05-01T00:51:56.737Z,29.90
2019-05-01T00:54:26.617Z,30.75
2019-05-01T00:57:00.224Z,30.43
2019-05-01T00:59:31.257Z,30.23
2019-05-01T01:02:02.541Z,30.80
2019-05-01T01:04:32.195Z,29.90
2019-05-01T01:07:01.537Z,31.07
2019-05-01T01:09:31.185Z,31.55
2019-05-01T01:12:00.546Z,32.40
2019-05-01T01:14:30.201Z,30.52
2019-05-01T01:16:59.530Z,32.73
2019-05-01T01:19:28.867Z,30.43
2019-05-01T01:21:58.197Z,30.97
2019-05-01T01:24:28.565Z,31.50
2019-05-01T01:26:58.348Z,31.17
2019-05-01T01:29:27.679Z,31.10
2019-05-01T01:31:57.055Z,29.75
2019-05-01T01:34:26.455Z,35.55
2019-05-01T01:36:55.776Z,32.98
2019-05-01T01:39:25.107Z,32.50
2019-05-01T01:41:55.178Z,31.65
2019-05-01T01:44:26.289Z,31.02
2019-05-01T01:46:59.836Z,30.20
2019-05-01T01:49:29.407Z,31.17
2019-05-01T01:51:58.906Z,30.62
2019-05-01T01:54:28.778Z,30.48
2019-05-01T01:56:58.380Z,33.28
2019-05-01T01:59:27.986Z,32.03
2019-05-01T02:02:07.774Z,30.35
2019-05-01T02:04:41.453Z,33.20
2019-05-01T02:09:39.309Z,35.00
2019-05-01T02:12:08.782Z,34.55
2019-05-01T02:14:38.123Z,34.55
2019-05-01T02:17:07.519Z,34.73
2019-05-01T02:19:36.852Z,34.33
2019-05-01T02:22:06.531Z,34.98
2019-05-01T02:24:35.871Z,35.17
2019-05-01T02:27:10.045Z,36.53
2019-05-01T02:29:43.430Z,35.43
2019-05-01T02:32:13.630Z,37.15
2019-05-01T02:34:44.010Z,36.45
2019-05-01T02:37:15.585Z,36.25
2019-05-01T02:39:46.914Z,36.77
2019-05-01T02:42:18.320Z,37.15
2019-05-01T02:44:52.632Z,37.45
2019-05-01T02:47:25.019Z,37.48
2019-05-01T02:50:02.913Z,36.70
2019-05-01T02:52:35.292Z,35.58
2019-05-01T02:55:07.502Z,34.98
2019-05-01T02:57:39.213Z,34.10
2019-05-01T03:00:08.887Z,34.05
2019-05-01T03:02:39.425Z,35.15
2019-05-01T03:05:09.202Z,33.65
2019-05-01T03:07:39.397Z,36.28
2019-05-01T03:10:10.049Z,39.98
2019-05-01T03:12:42.517Z,41.20
2019-05-01T03:15:13.570Z,42.25
2019-05-01T03:17:55.200Z,44.05
2019-05-01T03:20:32.341Z,44.90
2019-05-01T03:23:13.340Z,46.00
2019-05-01T03:25:43.392Z,46.53
2019-05-01T03:28:13.367Z,48.58
2019-05-01T03:30:42.848Z,48.48
2019-05-01T03:33:12.551Z,48.28
2019-05-01T03:35:41.966Z,48.48
2019-05-01T03:38:11.762Z,46.85
2019-05-01T03:40:42.320Z,46.75
2019-05-01T03:43:12.858Z,45.75
2019-05-01T03:45:43.157Z,44.42
2019-05-01T03:48:12.947Z,43.10
2019-05-01T03:50:46.223Z,41.28
2019-05-01T03:53:13.730Z,41.15
2019-05-01T03:55:43.071Z,39.30
2019-05-01T03:58:12.406Z,37.75
2019-05-01T04:00:46.339Z,38.88
2019-05-01T04:03:32.676Z,39.38
2019-05-01T04:06:02.500Z,39.40
2019-05-01T04:08:32.764Z,42.75
2019-05-01T04:11:03.907Z,45.15
2019-05-01T04:13:34.064Z,43.92
2019-05-01T04:16:04.437Z,37.33
2019-05-01T04:18:34.538Z,36.28
2019-05-01T04:21:04.107Z,40.63
2019-05-01T04:23:33.501Z,43.02
2019-05-01T04:26:02.902Z,35.70
2019-05-01T04:28:36.602Z,35.48
2019-05-01T04:33:57.421Z,31.48
2019-05-01T04:36:40.367Z,31.12
2019-05-01T04:39:09.677Z,35.55
2019-05-01T04:41:39.014Z,34.33
2019-05-01T04:44:08.829Z,34.70
2019-05-01T04:46:38.485Z,35.95
2019-05-01T04:49:08.214Z,37.25
2019-05-01T04:51:37.781Z,38.10
2019-05-01T04:54:08.248Z,37.70
2019-05-01T04:56:37.585Z,38.02
2019-05-01T04:59:07.482Z,37.53
2019-05-01T05:01:56.786Z,36.90
2019-05-01T05:04:26.725Z,38.30
2019-05-01T05:06:56.422Z,37.60
2019-05-01T05:09:40.000Z,39.55
2019-05-01T05:12:11.107Z,40.03
2019-05-01T05:14:51.287Z,39.08
2019-05-01T05:17:24.067Z,39.85
2019-05-01T05:19:53.660Z,42.73
2019-05-01T05:22:24.299Z,38.60
2019-05-01T05:24:54.467Z,44.98
2019-05-01T05:27:25.073Z,47.20
2019-05-01T05:29:57.545Z,47.20
2019-05-01T05:32:28.883Z,43.35
2019-05-01T05:35:00.427Z,39.85
2019-05-01T05:37:36.331Z,40.65
2019-05-01T05:40:06.750Z,39.95
2019-05-01T05:42:36.967Z,45.73
2019-05-01T05:45:09.583Z,48.48
2019-05-01T05:47:38.996Z,49.10
2019-05-01T05:50:09.974Z,46.58
2019-05-01T05:52:42.109Z,47.35
2019-05-01T05:55:17.091Z,48.30
2019-05-01T05:57:59.194Z,50.25
2019-05-01T06:00:44.229Z,49.08
2019-05-01T06:03:35.175Z,48.52
2019-05-01T06:06:08.187Z,47.25
2019-05-01T06:08:40.578Z,46.73
2019-05-01T06:11:17.314Z,44.55
2019-05-01T06:14:05.174Z,45.05
2019-05-01T06:16:53.960Z,43.40
2019-05-01T06:19:27.459Z,42.75
2019-05-01T06:22:05.084Z,41.85
2019-05-01T06:24:35.728Z,41.58
2019-05-01T06:27:08.815Z,42.08
2019-05-01T06:29:37.561Z,43.83
2019-05-01T06:32:06.885Z,40.55
2019-05-01T06:34:36.293Z,40.12
2019-05-01T06:37:05.689Z,41.98
2019-05-01T06:39:35.370Z,45.48
2019-05-01T06:42:09.871Z,42.50
2019-05-01T06:44:44.341Z,41.13
2019-05-01T06:47:24.828Z,40.50
2019-05-01T06:50:12.011Z,43.68
2019-05-01T06:52:41.686Z,40.80
2019-05-01T06:55:12.433Z,40.10
2019-05-01T06:57:43.686Z,39.23
2019-05-01T07:00:15.643Z,37.33
2019-05-01T07:02:47.479Z,36.63
2019-05-01T07:05:17.255Z,35.03
2019-05-01T07:07:48.278Z,36.45
2019-05-01T07:10:29.768Z,34.58
2019-05-01T07:12:49.411Z,34.85
2019-05-01T07:15:21.881Z,35.92
2019-05-01T07:17:50.093Z,38.15
2019-05-01T07:20:25.590Z,39.48
2019-05-01T07:22:55.621Z,38.48
2019-05-01T07:25:25.016Z,39.50
2019-05-01T07:27:58.479Z,38.88
2019-05-01T07:30:27.406Z,35.33
2019-05-01T07:32:57.601Z,35.83
2019-05-01T07:35:27.255Z,34.55
2019-05-01T07:37:57.641Z,35.00
2019-05-01T07:40:30.032Z,34.25
2019-05-01T07:42:59.871Z,33.67
2019-05-01T07:45:33.686Z,35.80
2019-05-01T07:48:05.616Z,35.98
2019-05-01T07:50:34.926Z,39.10
2019-05-01T07:53:04.420Z,38.73
2019-05-01T07:55:36.733Z,37.25
2019-05-01T07:58:15.903Z,34.45
2019-05-01T08:00:55.117Z,34.78
2019-05-01T08:03:24.438Z,35.38
2019-05-01T08:05:54.003Z,35.80
2019-05-01T08:08:23.563Z,39.90
2019-05-01T08:10:52.960Z,38.95
2019-05-01T08:13:22.288Z,39.63
2019-05-01T08:15:51.623Z,41.28
2019-05-01T08:18:29.309Z,39.45
2019-05-01T08:21:12.087Z,40.70
2019-05-01T08:23:42.635Z,40.38
2019-05-01T08:26:12.480Z,37.38
2019-05-01T08:28:55.441Z,41.20
2019-05-01T08:31:42.657Z,37.95
2019-05-01T08:34:26.608Z,35.10
2019-05-01T08:39:24.764Z,35.28
2019-05-01T08:41:54.089Z,36.50
2019-05-01T08:44:29.571Z,37.30
2019-05-01T08:47:09.859Z,38.92
2019-05-01T08:49:56.793Z,39.00
2019-05-01T08:52:26.198Z,38.83
2019-05-01T08:54:55.523Z,39.40
2019-05-01T08:57:29.039Z,39.15
2019-05-01T09:00:00.342Z,39.05
2019-05-01T09:02:26.960Z,39.53
2019-05-01T09:05:02.621Z,39.03
2019-05-01T09:07:27.608Z,40.05
2019-05-01T09:09:56.904Z,45.00
2019-05-01T09:12:26.234Z,43.60
2019-05-01T09:14:55.567Z,42.05
2019-05-01T09:17:24.896Z,41.00
2019-05-01T09:19:54.237Z,39.35
2019-05-01T09:22:23.565Z,39.85
2019-05-01T09:24:52.964Z,37.13
2019-05-01T09:27:31.125Z,40.70
2019-05-01T09:30:07.877Z,39.13
2019-05-01T09:32:37.210Z,37.05
2019-05-01T09:35:15.463Z,38.70
2019-05-01T09:37:38.173Z,36.93
2019-05-01T09:40:09.517Z,38.58
2019-05-01T09:42:40.063Z,39.27
2019-05-01T09:45:09.642Z,39.18
2019-05-01T09:47:38.970Z,42.25
2019-05-01T09:50:08.551Z,39.33
2019-05-01T09:52:59.708Z,39.83
2019-05-01T09:55:49.100Z,42.45
2019-05-01T09:58:19.412Z,41.70
2019-05-01T10:00:52.722Z,41.40
2019-05-01T10:03:20.482Z,43.15
2019-05-01T10:05:49.820Z,45.10
2019-05-01T10:08:19.474Z,43.45
2019-05-01T10:10:48.810Z,44.20
2019-05-01T10:13:22.556Z,41.58
2019-05-01T10:15:49.205Z,44.70
2019-05-01T10:18:19.582Z,44.48
2019-05-01T10:20:48.924Z,41.75
2019-05-01T10:23:18.250Z,42.13
2019-05-01T10:25:54.930Z,43.48
2019-05-01T10:28:34.800Z,41.55
2019-05-01T10:31:07.021Z,42.08
2019-05-01T10:33:41.132Z,40.23
2019-05-01T10:38:46.750Z,40.45
2019-05-01T10:41:15.797Z,41.20
2019-05-01T10:43:45.127Z,39.65
2019-05-01T10:46:14.457Z,38.73
2019-05-01T10:48:43.793Z,37.58
2019-05-01T10:51:14.114Z,38.45
2019-05-01T10:53:43.443Z,40.85
2019-05-01T10:56:12.815Z,36.60
2019-05-01T10:58:42.147Z,38.33
2019-05-01T11:01:19.105Z,37.42
2019-05-01T11:03:48.682Z,37.08
2019-05-01T11:06:18.012Z,37.10
2019-05-01T11:08:47.347Z,37.33
2019-05-01T11:11:16.919Z,40.17
2019-05-01T11:13:46.252Z,36.73
2019-05-01T11:16:15.656Z,36.75
2019-05-01T11:18:44.994Z,35.83
2019-05-01T11:21:14.562Z,38.13
2019-05-01T11:23:43.896Z,36.53
2019-05-01T11:26:13.456Z,36.60
2019-05-01T11:28:42.790Z,37.15
2019-05-01T11:31:13.999Z,36.35
2019-05-01T11:33:44.971Z,37.53
2019-05-01T11:36:22.809Z,38.48
2019-05-01T11:39:03.136Z,36.40
2019-05-01T11:41:51.228Z,36.48
2019-05-01T11:44:20.568Z,37.58
2019-05-01T11:46:50.210Z,37.25
2019-05-01T11:49:19.544Z,36.75
2019-05-01T11:51:48.888Z,37.67
2019-05-01T11:54:18.207Z,36.73
2019-05-01T11:56:47.548Z,35.80
2019-05-01T11:59:16.877Z,36.95
2019-05-01T12:01:46.220Z,35.98
2019-05-01T12:04:15.548Z,34.98
2019-05-01T12:06:44.892Z,36.48
2019-05-01T12:09:14.229Z,36.25
2019-05-01T12:11:46.374Z,36.13
2019-05-01T12:14:15.707Z,36.95
2019-05-01T12:16:52.101Z,38.53
2019-05-01T12:19:23.433Z,38.30
2019-05-01T12:21:53.114Z,36.23
2019-05-01T12:24:23.534Z,36.83
2019-05-01T12:26:52.874Z,37.55
2019-05-01T12:29:22.209Z,37.17
2019-05-01T12:31:51.563Z,37.40
2019-05-01T12:34:20.915Z,37.30
2019-05-01T12:36:51.887Z,35.50
2019-05-01T12:39:21.241Z,34.38
2019-05-01T12:41:54.935Z,34.50
2019-05-01T12:47:09.115Z,34.58
2019-05-01T12:49:39.415Z,36.05
2019-05-01T12:52:15.851Z,35.45
2019-05-01T12:54:47.044Z,36.38
2019-05-01T12:57:18.258Z,36.93
2019-05-01T12:59:47.594Z,35.78
2019-05-01T13:02:18.132Z,36.38
2019-05-01T13:04:47.467Z,35.33
2019-05-01T13:07:17.391Z,36.13
2019-05-01T13:09:46.954Z,36.17
2019-05-01T13:12:16.292Z,35.90
2019-05-01T13:14:45.831Z,35.75
2019-05-01T13:17:15.413Z,34.60
2019-05-01T13:19:44.983Z,36.40
2019-05-01T13:22:14.555Z,33.48
2019-05-01T13:24:50.061Z,35.92
2019-05-01T13:27:27.277Z,36.03
2019-05-01T13:29:58.246Z,35.30
2019-05-01T13:32:45.457Z,34.45
2019-05-01T13:35:15.529Z,35.35
2019-05-01T13:37:44.877Z,33.65
2019-05-01T13:40:15.219Z,34.27
2019-05-01T13:42:45.766Z,33.90
2019-05-01T13:45:15.670Z,34.58
2019-05-01T13:47:45.028Z,33.35
2019-05-01T13:50:14.598Z,32.55
2019-05-01T13:52:43.933Z,33.02
2019-05-01T13:55:13.509Z,32.70
2019-05-01T13:57:43.074Z,30.60
2019-05-01T14:00:12.943Z,35.10
2019-05-01T14:02:43.892Z,33.53
2019-05-01T14:05:13.683Z,34.13
2019-05-01T14:07:43.015Z,31.65
2019-05-01T14:10:13.926Z,34.33
2019-05-01T14:12:43.261Z,34.00
2019-05-01T14:15:13.172Z,32.98
2019-05-01T14:17:42.505Z,31.80
2019-05-01T14:20:20.397Z,32.48
2019-05-01T14:22:51.371Z,33.88
2019-05-01T14:25:20.715Z,31.70
2019-05-01T14:27:50.045Z,34.18
2019-05-01T14:30:19.453Z,36.17
2019-05-01T14:32:51.525Z,35.38
2019-05-01T14:35:20.174Z,33.28
2019-05-01T14:37:49.510Z,34.03
2019-05-01T14:40:19.117Z,36.17
2019-05-01T14:42:48.457Z,33.35
2019-05-01T14:45:18.152Z,35.40
2019-05-01T14:47:47.489Z,33.75
2019-05-01T14:50:16.971Z,32.50
2019-05-01T14:52:46.312Z,32.93
2019-05-01T14:55:15.740Z,33.88
2019-05-01T14:57:45.079Z,37.40
2019-05-01T15:00:15.635Z,35.98
2019-05-01T15:02:44.972Z,35.35
2019-05-01T15:05:14.374Z,35.43
2019-05-01T15:07:44.299Z,34.73
2019-05-01T15:10:13.877Z,38.50
2019-05-01T15:12:45.101Z,35.85
2019-05-01T15:15:32.294Z,35.60
2019-05-01T15:18:19.164Z,34.70
2019-05-01T15:20:48.506Z,35.20
2019-05-01T15:23:17.841Z,34.65
2019-05-01T15:25:47.199Z,28.85
2019-05-01T15:28:16.523Z,34.35
2019-05-01T15:30:45.870Z,32.88
2019-05-01T15:33:15.209Z,36.77
2019-05-01T15:35:44.550Z,34.98
2019-05-01T15:38:13.899Z,35.08
2019-05-01T15:40:50.652Z,36.83
2019-05-01T15:43:27.435Z,38.10
2019-05-01T15:45:56.765Z,35.85
2019-05-01T15:48:26.103Z,37.35
2019-05-01T15:50:55.436Z,37.40
2019-05-01T15:53:24.778Z,35.40
2019-05-01T15:55:54.160Z,36.90
2019-05-01T15:58:23.517Z,38.58
2019-05-01T16:00:52.943Z,37.58
2019-05-01T16:03:22.281Z,37.73
2019-05-01T16:05:51.855Z,36.98
2019-05-01T16:08:21.489Z,38.17
2019-05-01T16:10:55.394Z,35.58
2019-05-01T16:13:24.724Z,36.08
2019-05-01T16:15:54.065Z,37.42
2019-05-01T16:18:23.439Z,37.90
2019-05-01T16:20:52.770Z,39.50
2019-05-01T16:23:22.109Z,35.80
2019-05-01T16:25:51.672Z,38.88
2019-05-01T16:28:21.021Z,39.53
2019-05-01T16:30:50.351Z,42.00
2019-05-01T16:33:19.928Z,38.67
2019-05-01T16:35:49.258Z,39.15
2019-05-01T16:38:23.502Z,39.83
2019-05-01T16:40:59.836Z,37.25
2019-05-01T16:43:29.185Z,38.88
2019-05-01T16:45:59.700Z,39.45
2019-05-01T16:48:29.046Z,38.50
2019-05-01T16:50:58.386Z,39.00
2019-05-01T16:53:27.766Z,39.55
2019-05-01T16:55:57.167Z,40.40
2019-05-01T16:58:26.738Z,38.05
2019-05-01T17:00:59.821Z,41.37
2019-05-01T17:03:32.267Z,39.78
2019-05-01T17:06:09.858Z,42.23
2019-05-01T17:08:56.814Z,42.73
2019-05-01T17:11:30.911Z,40.43
2019-05-01T17:14:00.547Z,40.17
2019-05-01T17:16:30.184Z,41.20
2019-05-01T17:18:59.754Z,38.50
2019-05-01T17:21:29.315Z,42.45
2019-05-01T17:23:58.720Z,44.88
2019-05-01T17:26:28.289Z,38.20
2019-05-01T17:28:57.694Z,39.33
2019-05-01T17:31:28.422Z,44.42
2019-05-01T17:33:57.981Z,41.65
2019-05-01T17:36:27.325Z,38.73
2019-05-01T17:38:56.660Z,40.60
2019-05-01T17:41:27.253Z,38.90
2019-05-01T17:43:57.039Z,40.20
2019-05-01T17:46:26.621Z,41.15
2019-05-01T17:48:55.950Z,42.65
2019-05-01T17:51:25.293Z,39.40
2019-05-01T17:53:54.634Z,40.92
2019-05-01T17:56:28.422Z,41.40
2019-05-01T17:58:55.018Z,41.88
2019-05-01T18:01:42.008Z,43.13
2019-05-01T18:04:21.748Z,45.12
2019-05-01T18:06:51.969Z,43.58
2019-05-01T18:09:21.545Z,43.42
2019-05-01T18:11:52.308Z,42.38
2019-05-01T18:14:22.166Z,42.25
2019-05-01T18:16:51.728Z,43.23
2019-05-01T18:19:21.056Z,43.38
2019-05-01T18:21:53.560Z,43.02
2019-05-01T18:24:33.472Z,43.58
2019-05-01T18:27:07.098Z,44.58
2019-05-01T18:32:17.078Z,42.25
2019-05-01T18:34:46.462Z,43.87
2019-05-01T18:37:17.435Z,44.18
2019-05-01T18:39:47.837Z,45.40
2019-05-01T18:42:17.543Z,44.90
2019-05-01T18:44:47.854Z,43.92
2019-05-01T18:47:18.401Z,44.08
2019-05-01T18:49:47.846Z,45.08
2019-05-01T18:52:18.333Z,43.25
2019-05-01T18:54:47.662Z,43.63
2019-05-01T18:57:17.070Z,42.48
2019-05-01T18:59:46.653Z,43.35
2019-05-01T19:02:20.624Z,44.60
2019-05-01T19:04:47.110Z,46.25
2019-05-01T19:07:16.701Z,44.70
2019-05-01T19:09:46.097Z,45.45
2019-05-01T19:12:15.864Z,46.40
2019-05-01T19:14:45.493Z,46.18
2019-05-01T19:17:15.010Z,46.60
2019-05-01T19:19:44.338Z,46.88
2019-05-01T19:22:13.921Z,47.20
2019-05-01T19:24:43.332Z,60.38
2019-05-01T19:27:14.219Z,68.42
2019-05-01T19:29:43.821Z,73.07
2019-05-01T19:32:13.161Z,75.40
2019-05-01T19:34:42.537Z,64.37
2019-05-01T19:37:16.030Z,54.63
2019-05-01T19:39:44.180Z,54.30
2019-05-01T19:42:14.409Z,48.42
2019-05-01T19:44:43.810Z,45.03
2019-05-01T19:47:14.134Z,45.40
2019-05-01T19:49:43.765Z,44.38
2019-05-01T19:52:13.468Z,44.18
2019-05-01T19:54:42.809Z,43.28
2019-05-01T19:57:12.154Z,44.63
2019-05-01T19:59:41.844Z,43.05
2019-05-01T20:02:12.613Z,43.87
2019-05-01T20:04:45.264Z,44.58
2019-05-01T20:07:15.821Z,44.45
2019-05-01T20:09:56.427Z,44.27
2019-05-01T20:12:16.799Z,42.78
2019-05-01T20:14:46.144Z,42.83
2019-05-01T20:17:18.670Z,45.67
2019-05-01T20:19:48.003Z,43.28
2019-05-01T20:22:17.562Z,44.42
2019-05-01T20:24:47.122Z,44.65
2019-05-01T20:27:16.689Z,44.05
2019-05-01T20:29:46.040Z,44.73
2019-05-01T20:32:15.607Z,44.53
2019-05-01T20:34:48.121Z,45.90
2019-05-01T20:37:15.973Z,44.35
2019-05-01T20:39:45.323Z,45.48
2019-05-01T20:42:15.728Z,44.77
2019-05-01T20:44:45.084Z,45.70
2019-05-01T20:47:14.480Z,44.65
2019-05-01T20:49:43.813Z,45.95
2019-05-01T20:52:14.119Z,45.48
2019-05-01T20:54:43.450Z,44.90
2019-05-01T20:57:20.885Z,43.95
2019-05-01T20:59:48.178Z,44.10
2019-05-01T21:02:16.998Z,45.25
2019-05-01T21:05:04.207Z,43.55
2019-05-01T21:07:35.854Z,44.00
2019-05-01T21:10:06.841Z,43.05
2019-05-01T21:12:36.173Z,43.25
2019-05-01T21:15:08.522Z,42.93
2019-05-01T21:17:38.067Z,41.37
2019-05-01T21:20:07.867Z,41.42
2019-05-01T21:22:37.446Z,41.65
2019-05-01T21:25:07.048Z,40.65
2019-05-01T21:27:36.771Z,41.98
2019-05-01T21:30:09.372Z,41.30
2019-05-01T21:32:38.708Z,43.40
2019-05-01T21:35:08.280Z,42.23
2019-05-01T21:37:38.589Z,40.35
2019-05-01T21:40:08.257Z,41.45
2019-05-01T21:42:37.901Z,41.05
2019-05-01T21:45:07.772Z,42.10
2019-05-01T21:47:37.422Z,40.40
2019-05-01T21:50:06.901Z,42.27
2019-05-01T21:52:36.533Z,42.27
2019-05-01T21:55:06.602Z,42.53
2019-05-01T21:57:40.103Z,42.33
2019-05-01T22:00:09.197Z,41.55
2019-05-01T22:02:41.680Z,40.38
2019-05-01T22:05:11.518Z,41.50
2019-05-01T22:07:40.853Z,41.42
2019-05-01T22:10:11.705Z,42.78
2019-05-01T22:12:43.850Z,42.70
2019-05-01T22:15:16.768Z,43.25
2019-05-01T22:18:03.061Z,41.92
2019-05-01T22:20:52.530Z,42.70
2019-05-01T22:23:29.913Z,42.90
2019-05-01T22:26:00.673Z,42.60
2019-05-01T22:28:37.584Z,43.78
2019-05-01T22:31:21.716Z,45.15
2019-05-01T22:33:50.445Z,42.50
2019-05-01T22:36:19.777Z,45.48
2019-05-01T22:38:49.188Z,44.00
2019-05-01T22:41:18.580Z,42.75
2019-05-01T22:43:47.997Z,43.92
2019-05-01T22:46:18.973Z,42.95
2019-05-01T22:48:48.309Z,41.65
2019-05-01T22:51:19.299Z,43.78
2019-05-01T22:53:50.276Z,43.85
2019-05-01T22:56:19.615Z,43.65
2019-05-01T22:58:48.953Z,45.52
2019-05-01T23:01:19.328Z,45.73
2019-05-01T23:03:56.057Z,45.58
2019-05-01T23:06:25.394Z,43.50
2019-05-01T23:08:54.741Z,43.23
2019-05-01T23:11:26.072Z,43.28
2019-05-01T23:13:55.484Z,41.70
2019-05-01T23:16:28.717Z,43.08
2019-05-01T23:18:57.844Z,43.10
2019-05-01T23:21:27.409Z,43.65
2019-05-01T23:24:01.771Z,44.42
2019-05-01T23:26:27.783Z,42.65
2019-05-01T23:28:57.153Z,43.40
2019-05-01T23:31:26.634Z,42.30
2019-05-01T23:33:55.968Z,41.90
2019-05-01T23:36:25.304Z,42.15
2019-05-01T23:38:54.633Z,43.20
2019-05-01T23:41:44.641Z,41.60
2019-05-01T23:43:58.340Z,41.63
2019-05-01T23:46:26.104Z,41.08
2019-05-01T23:48:55.437Z,41.60
2019-05-01T23:51:28.478Z,40.67
2019-05-01T23:53:55.980Z,42.10
2019-05-01T23:56:25.666Z,42.53
2019-05-01T23:58:55.273Z,42.50
